sensor_id;sensor_type;location;lat;lon;timestamp;P1;durP1;ratioP1;P2;durP2;ratioP2
13868;SDS011;7004;48.206;16.402;2023-06-22T00:00:55;12.47;;;7.03;;
13868;SDS011;7004;48.206;16.402;2023-06-22T00:03:23;10.77;;;6.50;;
13868;SDS011;7004;48.206;16.402;2023-06-22T00:05:51;10.30;;;7.27;;
13868;SDS011;7004;48.206;16.402;2023-06-22T00:08:18;18.23;;;7.77;;
13868;SDS011;7004;48.206;16.402;2023-06-22T00:10:45;12.80;;;7.07;;
13868;SDS011;7004;48.206;16.402;2023-06-22T00:13:12;12.87;;;6.53;;
13868;SDS011;7004;48.206;16.402;2023-06-22T00:15:40;10.70;;;7.10;;
13868;SDS011;7004;48.206;16.402;2023-06-22T00:18:07;14.20;;;7.17;;
13868;SDS011;7004;48.206;16.402;2023-06-22T00:20:34;12.70;;;7.23;;
13868;SDS011;7004;48.206;16.402;2023-06-22T00:23:02;11.30;;;7.50;;
13868;SDS011;7004;48.206;16.402;2023-06-22T00:25:37;10.47;;;6.80;;
13868;SDS011;7004;48.206;16.402;2023-06-22T00:28:07;12.20;;;6.63;;
13868;SDS011;7004;48.206;16.402;2023-06-22T00:30:33;11.17;;;6.53;;
13868;SDS011;7004;48.206;16.402;2023-06-22T00:33:00;14.90;;;8.03;;
13868;SDS011;7004;48.206;16.402;2023-06-22T00:35:26;12.37;;;6.50;;
13868;SDS011;7004;48.206;16.402;2023-06-22T00:37:54;14.17;;;7.70;;
13868;SDS011;7004;48.206;16.402;2023-06-22T00:40:30;13.67;;;7.10;;
13868;SDS011;7004;48.206;16.402;2023-06-22T00:42:57;17.17;;;7.60;;
13868;SDS011;7004;48.206;16.402;2023-06-22T00:45:24;15.87;;;7.27;;
13868;SDS011;7004;48.206;16.402;2023-06-22T00:47:52;15.87;;;7.23;;
13868;SDS011;7004;48.206;16.402;2023-06-22T00:50:21;11.73;;;6.83;;
13868;SDS011;7004;48.206;16.402;2023-06-22T00:52:54;12.93;;;7.20;;
13868;SDS011;7004;48.206;16.402;2023-06-22T00:55:24;18.30;;;7.47;;
13868;SDS011;7004;48.206;16.402;2023-06-22T00:57:51;14.23;;;6.70;;
13868;SDS011;7004;48.206;16.402;2023-06-22T01:00:25;16.70;;;8.40;;
13868;SDS011;7004;48.206;16.402;2023-06-22T01:02:52;15.63;;;7.10;;
13868;SDS011;7004;48.206;16.402;2023-06-22T01:05:19;13.07;;;7.50;;
13868;SDS011;7004;48.206;16.402;2023-06-22T01:07:51;14.40;;;7.17;;
13868;SDS011;7004;48.206;16.402;2023-06-22T01:11:12;15.80;;;6.73;;
13868;SDS011;7004;48.206;16.402;2023-06-22T01:13:58;14.90;;;7.63;;
13868;SDS011;7004;48.206;16.402;2023-06-22T01:16:35;20.10;;;7.07;;
13868;SDS011;7004;48.206;16.402;2023-06-22T01:21:53;15.83;;;6.80;;
13868;SDS011;7004;48.206;16.402;2023-06-22T01:24:30;13.23;;;6.90;;
13868;SDS011;7004;48.206;16.402;2023-06-22T01:30:15;10.30;;;6.57;;
13868;SDS011;7004;48.206;16.402;2023-06-22T01:32:44;12.37;;;6.60;;
13868;SDS011;7004;48.206;16.402;2023-06-22T01:35:11;15.23;;;7.10;;
13868;SDS011;7004;48.206;16.402;2023-06-22T01:37:38;15.40;;;7.07;;
13868;SDS011;7004;48.206;16.402;2023-06-22T01:40:05;16.23;;;6.90;;
13868;SDS011;7004;48.206;16.402;2023-06-22T01:42:33;14.53;;;6.70;;
13868;SDS011;7004;48.206;16.402;2023-06-22T01:45:02;15.43;;;6.87;;
13868;SDS011;7004;48.206;16.402;2023-06-22T01:47:30;13.70;;;7.70;;
13868;SDS011;7004;48.206;16.402;2023-06-22T01:49:57;12.10;;;6.30;;
13868;SDS011;7004;48.206;16.402;2023-06-22T01:52:23;15.50;;;6.17;;
13868;SDS011;7004;48.206;16.402;2023-06-22T01:54:50;13.20;;;6.07;;
13868;SDS011;7004;48.206;16.402;2023-06-22T01:57:16;11.93;;;7.20;;
13868;SDS011;7004;48.206;16.402;2023-06-22T01:59:47;13.13;;;6.57;;
13868;SDS011;7004;48.206;16.402;2023-06-22T02:02:33;16.27;;;6.93;;
13868;SDS011;7004;48.206;16.402;2023-06-22T02:05:12;14.67;;;6.93;;
13868;SDS011;7004;48.206;16.402;2023-06-22T02:07:56;10.90;;;6.43;;
13868;SDS011;7004;48.206;16.402;2023-06-22T02:10:31;13.20;;;6.53;;
13868;SDS011;7004;48.206;16.402;2023-06-22T02:12:59;11.00;;;6.50;;
13868;SDS011;7004;48.206;16.402;2023-06-22T02:15:27;10.50;;;6.97;;
13868;SDS011;7004;48.206;16.402;2023-06-22T02:17:54;13.83;;;6.73;;
13868;SDS011;7004;48.206;16.402;2023-06-22T02:20:21;8.83;;;6.27;;
13868;SDS011;7004;48.206;16.402;2023-06-22T02:22:49;11.03;;;6.60;;
13868;SDS011;7004;48.206;16.402;2023-06-22T02:25:16;10.60;;;6.10;;
13868;SDS011;7004;48.206;16.402;2023-06-22T02:27:42;12.30;;;6.43;;
13868;SDS011;7004;48.206;16.402;2023-06-22T02:30:08;10.30;;;6.07;;
13868;SDS011;7004;48.206;16.402;2023-06-22T02:32:35;8.53;;;6.10;;
13868;SDS011;7004;48.206;16.402;2023-06-22T02:35:02;13.37;;;7.07;;
13868;SDS011;7004;48.206;16.402;2023-06-22T02:37:32;10.53;;;5.90;;
13868;SDS011;7004;48.206;16.402;2023-06-22T02:39:58;10.87;;;6.03;;
13868;SDS011;7004;48.206;16.402;2023-06-22T02:42:24;11.10;;;6.37;;
13868;SDS011;7004;48.206;16.402;2023-06-22T02:44:50;10.63;;;6.23;;
13868;SDS011;7004;48.206;16.402;2023-06-22T02:47:16;11.87;;;6.83;;
13868;SDS011;7004;48.206;16.402;2023-06-22T02:49:42;9.80;;;6.50;;
13868;SDS011;7004;48.206;16.402;2023-06-22T02:52:10;11.67;;;6.30;;
13868;SDS011;7004;48.206;16.402;2023-06-22T02:54:36;12.10;;;6.33;;
13868;SDS011;7004;48.206;16.402;2023-06-22T02:57:02;9.13;;;6.00;;
13868;SDS011;7004;48.206;16.402;2023-06-22T02:59:29;11.97;;;5.90;;
13868;SDS011;7004;48.206;16.402;2023-06-22T03:01:55;12.07;;;6.40;;
13868;SDS011;7004;48.206;16.402;2023-06-22T03:04:21;12.87;;;6.57;;
13868;SDS011;7004;48.206;16.402;2023-06-22T03:06:47;12.13;;;6.60;;
13868;SDS011;7004;48.206;16.402;2023-06-22T03:09:16;10.00;;;6.73;;
13868;SDS011;7004;48.206;16.402;2023-06-22T03:11:43;12.40;;;6.30;;
13868;SDS011;7004;48.206;16.402;2023-06-22T03:14:09;10.63;;;6.20;;
13868;SDS011;7004;48.206;16.402;2023-06-22T03:16:35;12.30;;;6.60;;
13868;SDS011;7004;48.206;16.402;2023-06-22T03:19:02;8.77;;;6.30;;
13868;SDS011;7004;48.206;16.402;2023-06-22T03:21:28;8.07;;;6.10;;
13868;SDS011;7004;48.206;16.402;2023-06-22T03:23:55;9.70;;;6.20;;
13868;SDS011;7004;48.206;16.402;2023-06-22T03:26:21;9.70;;;6.30;;
13868;SDS011;7004;48.206;16.402;2023-06-22T03:28:49;9.97;;;6.10;;
13868;SDS011;7004;48.206;16.402;2023-06-22T03:31:15;11.47;;;5.90;;
13868;SDS011;7004;48.206;16.402;2023-06-22T03:33:41;8.40;;;5.50;;
13868;SDS011;7004;48.206;16.402;2023-06-22T03:36:07;12.07;;;5.90;;
13868;SDS011;7004;48.206;16.402;2023-06-22T03:38:34;9.30;;;6.47;;
13868;SDS011;7004;48.206;16.402;2023-06-22T03:41:00;7.17;;;5.40;;
13868;SDS011;7004;48.206;16.402;2023-06-22T03:43:26;8.63;;;6.17;;
13868;SDS011;7004;48.206;16.402;2023-06-22T03:45:53;7.77;;;6.37;;
13868;SDS011;7004;48.206;16.402;2023-06-22T03:48:19;9.53;;;6.30;;
13868;SDS011;7004;48.206;16.402;2023-06-22T03:50:45;9.43;;;6.40;;
13868;SDS011;7004;48.206;16.402;2023-06-22T03:53:11;13.80;;;6.47;;
13868;SDS011;7004;48.206;16.402;2023-06-22T03:55:40;9.50;;;6.10;;
13868;SDS011;7004;48.206;16.402;2023-06-22T03:58:15;9.37;;;6.00;;
13868;SDS011;7004;48.206;16.402;2023-06-22T04:00:47;9.73;;;5.93;;
13868;SDS011;7004;48.206;16.402;2023-06-22T04:03:15;12.07;;;6.00;;
13868;SDS011;7004;48.206;16.402;2023-06-22T04:05:43;8.37;;;6.60;;
13868;SDS011;7004;48.206;16.402;2023-06-22T04:08:10;10.63;;;6.37;;
13868;SDS011;7004;48.206;16.402;2023-06-22T04:10:38;11.07;;;5.73;;
13868;SDS011;7004;48.206;16.402;2023-06-22T04:13:04;9.90;;;5.50;;
13868;SDS011;7004;48.206;16.402;2023-06-22T04:15:30;12.27;;;5.40;;
13868;SDS011;7004;48.206;16.402;2023-06-22T04:17:57;10.93;;;6.07;;
13868;SDS011;7004;48.206;16.402;2023-06-22T04:20:23;9.73;;;5.83;;
13868;SDS011;7004;48.206;16.402;2023-06-22T04:22:53;11.13;;;5.50;;
13868;SDS011;7004;48.206;16.402;2023-06-22T04:25:19;10.87;;;5.80;;
13868;SDS011;7004;48.206;16.402;2023-06-22T04:27:46;8.27;;;5.20;;
13868;SDS011;7004;48.206;16.402;2023-06-22T04:30:13;13.33;;;5.17;;
13868;SDS011;7004;48.206;16.402;2023-06-22T04:32:42;9.23;;;5.40;;
13868;SDS011;7004;48.206;16.402;2023-06-22T04:35:09;10.53;;;5.20;;
13868;SDS011;7004;48.206;16.402;2023-06-22T04:37:37;6.97;;;5.23;;
13868;SDS011;7004;48.206;16.402;2023-06-22T04:40:04;7.23;;;5.10;;
13868;SDS011;7004;48.206;16.402;2023-06-22T04:42:33;9.07;;;5.03;;
13868;SDS011;7004;48.206;16.402;2023-06-22T04:45:02;6.23;;;4.90;;
13868;SDS011;7004;48.206;16.402;2023-06-22T04:47:30;6.77;;;5.23;;
13868;SDS011;7004;48.206;16.402;2023-06-22T04:49:56;12.47;;;6.30;;
13868;SDS011;7004;48.206;16.402;2023-06-22T04:52:22;13.90;;;6.50;;
13868;SDS011;7004;48.206;16.402;2023-06-22T04:54:50;12.07;;;5.90;;
13868;SDS011;7004;48.206;16.402;2023-06-22T04:57:22;13.23;;;5.97;;
13868;SDS011;7004;48.206;16.402;2023-06-22T04:59:56;10.13;;;5.83;;
13868;SDS011;7004;48.206;16.402;2023-06-22T05:02:22;9.90;;;5.90;;
13868;SDS011;7004;48.206;16.402;2023-06-22T05:04:53;9.60;;;5.80;;
13868;SDS011;7004;48.206;16.402;2023-06-22T05:07:22;7.90;;;5.00;;
13868;SDS011;7004;48.206;16.402;2023-06-22T05:09:50;9.93;;;6.07;;
13868;SDS011;7004;48.206;16.402;2023-06-22T05:12:16;8.40;;;5.53;;
13868;SDS011;7004;48.206;16.402;2023-06-22T05:14:42;8.60;;;5.60;;
13868;SDS011;7004;48.206;16.402;2023-06-22T05:17:08;8.47;;;5.40;;
13868;SDS011;7004;48.206;16.402;2023-06-22T05:19:41;12.73;;;5.73;;
13868;SDS011;7004;48.206;16.402;2023-06-22T05:22:16;8.80;;;5.73;;
13868;SDS011;7004;48.206;16.402;2023-06-22T05:24:43;11.57;;;5.80;;
13868;SDS011;7004;48.206;16.402;2023-06-22T05:27:09;8.43;;;5.90;;
13868;SDS011;7004;48.206;16.402;2023-06-22T05:29:36;8.00;;;5.30;;
13868;SDS011;7004;48.206;16.402;2023-06-22T05:32:03;10.23;;;5.83;;
13868;SDS011;7004;48.206;16.402;2023-06-22T05:34:29;9.80;;;5.40;;
13868;SDS011;7004;48.206;16.402;2023-06-22T05:36:55;11.80;;;6.50;;
13868;SDS011;7004;48.206;16.402;2023-06-22T05:39:24;14.90;;;6.40;;
13868;SDS011;7004;48.206;16.402;2023-06-22T05:41:51;9.50;;;6.07;;
13868;SDS011;7004;48.206;16.402;2023-06-22T05:44:18;11.33;;;6.53;;
13868;SDS011;7004;48.206;16.402;2023-06-22T05:46:44;9.93;;;6.73;;
13868;SDS011;7004;48.206;16.402;2023-06-22T05:49:12;12.47;;;6.27;;
13868;SDS011;7004;48.206;16.402;2023-06-22T05:51:39;10.23;;;5.83;;
13868;SDS011;7004;48.206;16.402;2023-06-22T05:54:06;14.67;;;7.00;;
13868;SDS011;7004;48.206;16.402;2023-06-22T05:56:34;10.30;;;6.50;;
13868;SDS011;7004;48.206;16.402;2023-06-22T05:59:00;12.93;;;6.47;;
13868;SDS011;7004;48.206;16.402;2023-06-22T06:01:26;11.37;;;6.63;;
13868;SDS011;7004;48.206;16.402;2023-06-22T06:03:52;14.13;;;6.83;;
13868;SDS011;7004;48.206;16.402;2023-06-22T06:06:18;19.03;;;8.60;;
13868;SDS011;7004;48.206;16.402;2023-06-22T06:08:54;11.10;;;7.83;;
13868;SDS011;7004;48.206;16.402;2023-06-22T06:11:21;18.37;;;8.33;;
13868;SDS011;7004;48.206;16.402;2023-06-22T06:14:00;13.70;;;8.57;;
13868;SDS011;7004;48.206;16.402;2023-06-22T06:16:26;13.63;;;8.50;;
13868;SDS011;7004;48.206;16.402;2023-06-22T06:18:52;13.27;;;8.80;;
13868;SDS011;7004;48.206;16.402;2023-06-22T06:21:21;14.87;;;8.90;;
13868;SDS011;7004;48.206;16.402;2023-06-22T06:23:47;21.67;;;11.43;;
13868;SDS011;7004;48.206;16.402;2023-06-22T06:26:13;14.93;;;9.87;;
13868;SDS011;7004;48.206;16.402;2023-06-22T06:28:42;20.33;;;12.13;;
13868;SDS011;7004;48.206;16.402;2023-06-22T06:31:09;18.83;;;11.53;;
13868;SDS011;7004;48.206;16.402;2023-06-22T06:33:35;20.07;;;11.23;;
13868;SDS011;7004;48.206;16.402;2023-06-22T06:36:02;25.13;;;13.30;;
13868;SDS011;7004;48.206;16.402;2023-06-22T06:38:31;18.13;;;12.10;;
13868;SDS011;7004;48.206;16.402;2023-06-22T06:40:58;15.30;;;11.10;;
13868;SDS011;7004;48.206;16.402;2023-06-22T06:43:24;23.93;;;12.70;;
13868;SDS011;7004;48.206;16.402;2023-06-22T06:45:50;17.63;;;12.73;;
13868;SDS011;7004;48.206;16.402;2023-06-22T06:48:17;15.73;;;12.70;;
13868;SDS011;7004;48.206;16.402;2023-06-22T06:50:43;22.13;;;13.50;;
13868;SDS011;7004;48.206;16.402;2023-06-22T06:53:09;14.80;;;12.17;;
13868;SDS011;7004;48.206;16.402;2023-06-22T06:55:35;16.00;;;12.23;;
13868;SDS011;7004;48.206;16.402;2023-06-22T06:58:02;17.33;;;12.30;;
13868;SDS011;7004;48.206;16.402;2023-06-22T07:00:32;17.60;;;11.87;;
13868;SDS011;7004;48.206;16.402;2023-06-22T07:03:00;13.93;;;11.37;;
13868;SDS011;7004;48.206;16.402;2023-06-22T07:05:25;17.30;;;12.07;;
13868;SDS011;7004;48.206;16.402;2023-06-22T07:07:52;15.80;;;10.53;;
13868;SDS011;7004;48.206;16.402;2023-06-22T07:10:19;18.20;;;11.23;;
13868;SDS011;7004;48.206;16.402;2023-06-22T07:12:45;19.17;;;11.07;;
13868;SDS011;7004;48.206;16.402;2023-06-22T07:15:11;18.47;;;11.37;;
13868;SDS011;7004;48.206;16.402;2023-06-22T07:17:39;15.30;;;10.53;;
13868;SDS011;7004;48.206;16.402;2023-06-22T07:20:06;16.37;;;10.93;;
13868;SDS011;7004;48.206;16.402;2023-06-22T07:22:37;16.67;;;11.93;;
13868;SDS011;7004;48.206;16.402;2023-06-22T07:25:09;18.00;;;11.80;;
13868;SDS011;7004;48.206;16.402;2023-06-22T07:27:40;16.57;;;11.20;;
13868;SDS011;7004;48.206;16.402;2023-06-22T07:30:11;14.90;;;10.67;;
13868;SDS011;7004;48.206;16.402;2023-06-22T07:32:38;14.33;;;10.13;;
13868;SDS011;7004;48.206;16.402;2023-06-22T07:35:05;21.60;;;10.87;;
13868;SDS011;7004;48.206;16.402;2023-06-22T07:37:31;16.03;;;10.77;;
13868;SDS011;7004;48.206;16.402;2023-06-22T07:39:59;18.93;;;10.63;;
13868;SDS011;7004;48.206;16.402;2023-06-22T07:42:25;17.43;;;10.80;;
13868;SDS011;7004;48.206;16.402;2023-06-22T07:44:52;14.73;;;9.37;;
13868;SDS011;7004;48.206;16.402;2023-06-22T07:47:19;12.83;;;9.73;;
13868;SDS011;7004;48.206;16.402;2023-06-22T07:49:50;18.80;;;10.17;;
13868;SDS011;7004;48.206;16.402;2023-06-22T07:52:17;16.80;;;10.33;;
13868;SDS011;7004;48.206;16.402;2023-06-22T07:54:43;14.23;;;9.80;;
13868;SDS011;7004;48.206;16.402;2023-06-22T07:57:09;18.03;;;10.90;;
13868;SDS011;7004;48.206;16.402;2023-06-22T07:59:35;17.07;;;10.30;;
13868;SDS011;7004;48.206;16.402;2023-06-22T08:02:02;15.17;;;9.90;;
13868;SDS011;7004;48.206;16.402;2023-06-22T08:04:30;15.47;;;9.73;;
13868;SDS011;7004;48.206;16.402;2023-06-22T08:06:59;16.20;;;10.87;;
13868;SDS011;7004;48.206;16.402;2023-06-22T08:09:27;15.83;;;10.83;;
13868;SDS011;7004;48.206;16.402;2023-06-22T08:11:55;17.20;;;11.23;;
13868;SDS011;7004;48.206;16.402;2023-06-22T08:14:22;14.57;;;10.60;;
13868;SDS011;7004;48.206;16.402;2023-06-22T08:16:50;14.30;;;10.60;;
13868;SDS011;7004;48.206;16.402;2023-06-22T08:19:16;13.33;;;10.37;;
13868;SDS011;7004;48.206;16.402;2023-06-22T08:21:43;13.80;;;10.33;;
13868;SDS011;7004;48.206;16.402;2023-06-22T08:24:09;16.33;;;10.97;;
13868;SDS011;7004;48.206;16.402;2023-06-22T08:26:36;10.77;;;8.97;;
13868;SDS011;7004;48.206;16.402;2023-06-22T08:29:03;14.00;;;10.33;;
13868;SDS011;7004;48.206;16.402;2023-06-22T08:31:30;13.97;;;10.67;;
13868;SDS011;7004;48.206;16.402;2023-06-22T08:33:58;14.70;;;10.20;;
13868;SDS011;7004;48.206;16.402;2023-06-22T08:36:25;17.70;;;10.33;;
13868;SDS011;7004;48.206;16.402;2023-06-22T08:38:54;13.63;;;10.37;;
13868;SDS011;7004;48.206;16.402;2023-06-22T08:41:23;13.23;;;10.63;;
13868;SDS011;7004;48.206;16.402;2023-06-22T08:43:49;11.17;;;9.50;;
13868;SDS011;7004;48.206;16.402;2023-06-22T08:46:15;13.67;;;9.63;;
13868;SDS011;7004;48.206;16.402;2023-06-22T08:48:45;14.47;;;10.30;;
13868;SDS011;7004;48.206;16.402;2023-06-22T08:51:11;13.27;;;9.40;;
13868;SDS011;7004;48.206;16.402;2023-06-22T08:53:37;16.10;;;9.30;;
13868;SDS011;7004;48.206;16.402;2023-06-22T08:56:03;11.73;;;8.20;;
13868;SDS011;7004;48.206;16.402;2023-06-22T08:58:30;13.33;;;9.17;;
13868;SDS011;7004;48.206;16.402;2023-06-22T09:00:56;13.10;;;10.10;;
13868;SDS011;7004;48.206;16.402;2023-06-22T09:03:22;13.60;;;9.30;;
13868;SDS011;7004;48.206;16.402;2023-06-22T09:05:51;15.33;;;9.20;;
13868;SDS011;7004;48.206;16.402;2023-06-22T09:08:17;14.73;;;8.53;;
13868;SDS011;7004;48.206;16.402;2023-06-22T09:10:43;11.10;;;8.83;;
13868;SDS011;7004;48.206;16.402;2023-06-22T09:13:09;11.83;;;8.80;;
13868;SDS011;7004;48.206;16.402;2023-06-22T09:15:36;9.03;;;7.73;;
13868;SDS011;7004;48.206;16.402;2023-06-22T09:18:03;14.47;;;8.87;;
13868;SDS011;7004;48.206;16.402;2023-06-22T09:20:29;12.43;;;8.57;;
13868;SDS011;7004;48.206;16.402;2023-06-22T09:22:56;13.20;;;8.37;;
13868;SDS011;7004;48.206;16.402;2023-06-22T09:25:23;16.90;;;8.90;;
13868;SDS011;7004;48.206;16.402;2023-06-22T09:27:49;14.55;;;8.68;;
13868;SDS011;7004;48.206;16.402;2023-06-22T09:30:15;11.07;;;7.90;;
13868;SDS011;7004;48.206;16.402;2023-06-22T09:32:41;18.83;;;9.43;;
13868;SDS011;7004;48.206;16.402;2023-06-22T09:35:09;11.57;;;8.40;;
13868;SDS011;7004;48.206;16.402;2023-06-22T09:37:36;11.77;;;8.30;;
13868;SDS011;7004;48.206;16.402;2023-06-22T09:40:03;13.47;;;7.60;;
13868;SDS011;7004;48.206;16.402;2023-06-22T09:42:35;12.10;;;8.20;;
13868;SDS011;7004;48.206;16.402;2023-06-22T09:45:02;12.95;;;7.93;;
13868;SDS011;7004;48.206;16.402;2023-06-22T09:47:29;13.07;;;8.90;;
13868;SDS011;7004;48.206;16.402;2023-06-22T09:49:56;8.73;;;6.67;;
13868;SDS011;7004;48.206;16.402;2023-06-22T09:52:24;10.20;;;7.35;;
13868;SDS011;7004;48.206;16.402;2023-06-22T09:54:50;9.82;;;7.35;;
13868;SDS011;7004;48.206;16.402;2023-06-22T09:57:16;10.98;;;7.47;;
13868;SDS011;7004;48.206;16.402;2023-06-22T09:59:42;11.70;;;7.13;;
13868;SDS011;7004;48.206;16.402;2023-06-22T10:02:08;11.23;;;7.47;;
13868;SDS011;7004;48.206;16.402;2023-06-22T10:04:35;9.25;;;7.57;;
13868;SDS011;7004;48.206;16.402;2023-06-22T10:07:01;10.70;;;7.90;;
13868;SDS011;7004;48.206;16.402;2023-06-22T10:09:28;10.68;;;7.15;;
13868;SDS011;7004;48.206;16.402;2023-06-22T10:11:55;9.20;;;6.78;;
13868;SDS011;7004;48.206;16.402;2023-06-22T10:14:22;11.00;;;6.80;;
13868;SDS011;7004;48.206;16.402;2023-06-22T10:16:51;9.02;;;6.72;;
13868;SDS011;7004;48.206;16.402;2023-06-22T10:19:18;9.23;;;6.50;;
13868;SDS011;7004;48.206;16.402;2023-06-22T10:21:44;11.43;;;6.57;;
13868;SDS011;7004;48.206;16.402;2023-06-22T10:24:10;6.93;;;6.03;;
13868;SDS011;7004;48.206;16.402;2023-06-22T10:26:36;7.80;;;5.60;;
13868;SDS011;7004;48.206;16.402;2023-06-22T10:29:02;9.93;;;5.50;;
13868;SDS011;7004;48.206;16.402;2023-06-22T10:31:28;9.93;;;4.90;;
13868;SDS011;7004;48.206;16.402;2023-06-22T10:33:55;6.80;;;4.72;;
13868;SDS011;7004;48.206;16.402;2023-06-22T10:36:21;5.43;;;4.22;;
13868;SDS011;7004;48.206;16.402;2023-06-22T10:38:48;6.07;;;4.00;;
13868;SDS011;7004;48.206;16.402;2023-06-22T10:41:14;6.38;;;3.92;;
13868;SDS011;7004;48.206;16.402;2023-06-22T10:43:41;9.30;;;4.65;;
13868;SDS011;7004;48.206;16.402;2023-06-22T10:46:07;8.55;;;3.78;;
13868;SDS011;7004;48.206;16.402;2023-06-22T10:48:34;7.82;;;4.20;;
13868;SDS011;7004;48.206;16.402;2023-06-22T10:51:00;9.05;;;4.70;;
13868;SDS011;7004;48.206;16.402;2023-06-22T10:53:27;6.45;;;4.30;;
13868;SDS011;7004;48.206;16.402;2023-06-22T10:55:53;7.90;;;4.50;;
13868;SDS011;7004;48.206;16.402;2023-06-22T10:58:19;6.47;;;4.40;;
13868;SDS011;7004;48.206;16.402;2023-06-22T11:00:45;7.00;;;4.20;;
13868;SDS011;7004;48.206;16.402;2023-06-22T11:03:11;9.32;;;4.50;;
13868;SDS011;7004;48.206;16.402;2023-06-22T11:05:39;7.80;;;4.43;;
13868;SDS011;7004;48.206;16.402;2023-06-22T11:08:06;9.70;;;5.45;;
13868;SDS011;7004;48.206;16.402;2023-06-22T11:10:32;10.15;;;5.43;;
13868;SDS011;7004;48.206;16.402;2023-06-22T11:12:58;7.82;;;5.47;;
13868;SDS011;7004;48.206;16.402;2023-06-22T11:15:24;11.40;;;5.80;;
13868;SDS011;7004;48.206;16.402;2023-06-22T11:17:51;7.32;;;5.13;;
13868;SDS011;7004;48.206;16.402;2023-06-22T11:20:17;14.82;;;6.53;;
13868;SDS011;7004;48.206;16.402;2023-06-22T11:22:43;10.38;;;6.65;;
13868;SDS011;7004;48.206;16.402;2023-06-22T11:25:09;8.30;;;6.70;;
13868;SDS011;7004;48.206;16.402;2023-06-22T11:27:37;11.93;;;6.90;;
13868;SDS011;7004;48.206;16.402;2023-06-22T11:30:03;13.75;;;6.57;;
13868;SDS011;7004;48.206;16.402;2023-06-22T11:32:30;11.70;;;6.10;;
13868;SDS011;7004;48.206;16.402;2023-06-22T11:34:56;9.70;;;6.55;;
13868;SDS011;7004;48.206;16.402;2023-06-22T11:37:22;9.98;;;6.10;;
13868;SDS011;7004;48.206;16.402;2023-06-22T11:39:48;6.55;;;5.22;;
13868;SDS011;7004;48.206;16.402;2023-06-22T11:42:14;7.47;;;5.38;;
13868;SDS011;7004;48.206;16.402;2023-06-22T11:44:41;8.45;;;5.15;;
13868;SDS011;7004;48.206;16.402;2023-06-22T11:47:08;7.15;;;5.22;;
13868;SDS011;7004;48.206;16.402;2023-06-22T11:49:35;11.65;;;5.30;;
13868;SDS011;7004;48.206;16.402;2023-06-22T11:52:01;7.28;;;5.00;;
13868;SDS011;7004;48.206;16.402;2023-06-22T11:54:27;10.30;;;5.45;;
13868;SDS011;7004;48.206;16.402;2023-06-22T11:56:53;7.90;;;4.78;;
13868;SDS011;7004;48.206;16.402;2023-06-22T11:59:19;7.63;;;5.18;;
13868;SDS011;7004;48.206;16.402;2023-06-22T12:01:47;6.45;;;5.28;;
13868;SDS011;7004;48.206;16.402;2023-06-22T12:04:14;10.25;;;5.40;;
13868;SDS011;7004;48.206;16.402;2023-06-22T12:06:40;14.40;;;5.03;;
13868;SDS011;7004;48.206;16.402;2023-06-22T12:09:08;8.98;;;5.18;;
13868;SDS011;7004;48.206;16.402;2023-06-22T12:11:35;6.90;;;4.20;;
13868;SDS011;7004;48.206;16.402;2023-06-22T12:14:01;6.75;;;4.50;;
13868;SDS011;7004;48.206;16.402;2023-06-22T12:16:28;7.63;;;4.60;;
13868;SDS011;7004;48.206;16.402;2023-06-22T12:18:54;8.60;;;4.97;;
13868;SDS011;7004;48.206;16.402;2023-06-22T12:21:20;6.97;;;4.10;;
13868;SDS011;7004;48.206;16.402;2023-06-22T12:23:46;9.60;;;4.13;;
13868;SDS011;7004;48.206;16.402;2023-06-22T12:26:13;5.47;;;4.20;;
13868;SDS011;7004;48.206;16.402;2023-06-22T12:28:39;6.93;;;3.90;;
13868;SDS011;7004;48.206;16.402;2023-06-22T12:31:05;5.55;;;3.85;;
13868;SDS011;7004;48.206;16.402;2023-06-22T12:33:32;7.43;;;4.25;;
13868;SDS011;7004;48.206;16.402;2023-06-22T12:35:58;5.10;;;3.80;;
13868;SDS011;7004;48.206;16.402;2023-06-22T12:38:24;6.05;;;4.47;;
13868;SDS011;7004;48.206;16.402;2023-06-22T12:40:51;7.00;;;4.10;;
13868;SDS011;7004;48.206;16.402;2023-06-22T12:43:17;8.65;;;4.38;;
13868;SDS011;7004;48.206;16.402;2023-06-22T12:45:43;8.73;;;4.80;;
13868;SDS011;7004;48.206;16.402;2023-06-22T12:48:09;6.30;;;4.32;;
13868;SDS011;7004;48.206;16.402;2023-06-22T12:50:36;8.38;;;4.70;;
13868;SDS011;7004;48.206;16.402;2023-06-22T12:53:02;6.22;;;4.65;;
13868;SDS011;7004;48.206;16.402;2023-06-22T12:55:29;9.27;;;4.22;;
13868;SDS011;7004;48.206;16.402;2023-06-22T12:57:55;8.20;;;5.03;;
13868;SDS011;7004;48.206;16.402;2023-06-22T13:00:21;7.18;;;3.90;;
13868;SDS011;7004;48.206;16.402;2023-06-22T13:02:47;7.80;;;4.03;;
13868;SDS011;7004;48.206;16.402;2023-06-22T13:05:13;7.63;;;4.15;;
13868;SDS011;7004;48.206;16.402;2023-06-22T13:07:39;7.45;;;4.50;;
13868;SDS011;7004;48.206;16.402;2023-06-22T13:10:09;7.85;;;4.57;;
13868;SDS011;7004;48.206;16.402;2023-06-22T13:12:35;9.63;;;4.30;;
13868;SDS011;7004;48.206;16.402;2023-06-22T13:15:02;9.95;;;4.32;;
13868;SDS011;7004;48.206;16.402;2023-06-22T13:17:30;5.88;;;4.75;;
13868;SDS011;7004;48.206;16.402;2023-06-22T13:19:56;6.15;;;4.40;;
13868;SDS011;7004;48.206;16.402;2023-06-22T13:22:26;11.45;;;5.10;;
13868;SDS011;7004;48.206;16.402;2023-06-22T13:24:59;5.38;;;4.55;;
13868;SDS011;7004;48.206;16.402;2023-06-22T13:27:33;8.45;;;4.70;;
13868;SDS011;7004;48.206;16.402;2023-06-22T13:30:08;7.75;;;5.10;;
13868;SDS011;7004;48.206;16.402;2023-06-22T13:32:46;6.68;;;4.57;;
13868;SDS011;7004;48.206;16.402;2023-06-22T13:35:21;8.18;;;4.90;;
13868;SDS011;7004;48.206;16.402;2023-06-22T13:37:49;11.30;;;5.47;;
13868;SDS011;7004;48.206;16.402;2023-06-22T13:40:15;6.82;;;5.03;;
13868;SDS011;7004;48.206;16.402;2023-06-22T13:42:54;8.75;;;4.53;;
13868;SDS011;7004;48.206;16.402;2023-06-22T13:45:23;8.23;;;4.90;;
13868;SDS011;7004;48.206;16.402;2023-06-22T13:47:55;8.45;;;4.95;;
13868;SDS011;7004;48.206;16.402;2023-06-22T13:50:22;9.65;;;5.22;;
13868;SDS011;7004;48.206;16.402;2023-06-22T13:52:55;11.07;;;5.75;;
13868;SDS011;7004;48.206;16.402;2023-06-22T13:55:29;8.27;;;5.20;;
13868;SDS011;7004;48.206;16.402;2023-06-22T13:57:57;9.00;;;5.35;;
13868;SDS011;7004;48.206;16.402;2023-06-22T14:00:25;8.40;;;5.40;;
13868;SDS011;7004;48.206;16.402;2023-06-22T14:02:53;9.07;;;5.95;;
13868;SDS011;7004;48.206;16.402;2023-06-22T14:05:19;7.97;;;5.28;;
13868;SDS011;7004;48.206;16.402;2023-06-22T14:07:46;9.82;;;5.55;;
13868;SDS011;7004;48.206;16.402;2023-06-22T14:10:12;8.43;;;5.60;;
13868;SDS011;7004;48.206;16.402;2023-06-22T14:12:38;7.28;;;5.35;;
13868;SDS011;7004;48.206;16.402;2023-06-22T14:15:04;7.80;;;5.45;;
13868;SDS011;7004;48.206;16.402;2023-06-22T14:17:31;7.82;;;5.63;;
13868;SDS011;7004;48.206;16.402;2023-06-22T14:19:57;8.10;;;5.70;;
13868;SDS011;7004;48.206;16.402;2023-06-22T14:22:23;7.97;;;5.55;;
13868;SDS011;7004;48.206;16.402;2023-06-22T14:24:49;7.57;;;6.00;;
13868;SDS011;7004;48.206;16.402;2023-06-22T14:27:15;8.98;;;6.20;;
13868;SDS011;7004;48.206;16.402;2023-06-22T14:29:42;7.72;;;5.75;;
13868;SDS011;7004;48.206;16.402;2023-06-22T14:32:08;9.70;;;6.45;;
13868;SDS011;7004;48.206;16.402;2023-06-22T14:34:34;14.02;;;6.55;;
13868;SDS011;7004;48.206;16.402;2023-06-22T14:37:05;12.43;;;6.38;;
13868;SDS011;7004;48.206;16.402;2023-06-22T14:39:34;6.85;;;5.82;;
13868;SDS011;7004;48.206;16.402;2023-06-22T14:42:00;10.38;;;5.70;;
13868;SDS011;7004;48.206;16.402;2023-06-22T14:44:26;11.57;;;6.60;;
13868;SDS011;7004;48.206;16.402;2023-06-22T14:46:54;11.25;;;6.15;;